sensor_id;sensor_type;location;lat;lon;timestamp;P1;durP1;ratioP1;P2;durP2;ratioP2
18532;SDS011;9396;51.510;11.934;2023-02-15T00:00:15;31.93;;;19.73;;
18532;SDS011;9396;51.510;11.934;2023-02-15T00:02:42;32.93;;;18.53;;
18532;SDS011;9396;51.510;11.934;2023-02-15T00:05:10;33.10;;;20.27;;
18532;SDS011;9396;51.510;11.934;2023-02-15T00:07:37;27.80;;;17.67;;
18532;SDS011;9396;51.510;11.934;2023-02-15T00:10:04;32.33;;;18.17;;
18532;SDS011;9396;51.510;11.934;2023-02-15T00:12:32;33.43;;;19.57;;
18532;SDS011;9396;51.510;11.934;2023-02-15T00:14:58;31.67;;;18.83;;
18532;SDS011;9396;51.510;11.934;2023-02-15T00:17:26;27.77;;;18.30;;
18532;SDS011;9396;51.510;11.934;2023-02-15T00:19:53;31.93;;;19.20;;
18532;SDS011;9396;51.510;11.934;2023-02-15T00:22:21;31.00;;;18.60;;
18532;SDS011;9396;51.510;11.934;2023-02-15T00:24:48;31.23;;;19.00;;
18532;SDS011;9396;51.510;11.934;2023-02-15T00:27:15;32.03;;;19.73;;
18532;SDS011;9396;51.510;11.934;2023-02-15T00:29:41;33.77;;;18.70;;
18532;SDS011;9396;51.510;11.934;2023-02-15T00:32:08;29.30;;;18.33;;
18532;SDS011;9396;51.510;11.934;2023-02-15T00:34:34;31.07;;;18.47;;
18532;SDS011;9396;51.510;11.934;2023-02-15T00:37:01;28.63;;;18.13;;
18532;SDS011;9396;51.510;11.934;2023-02-15T00:39:29;33.57;;;18.67;;
18532;SDS011;9396;51.510;11.934;2023-02-15T00:41:56;33.00;;;19.27;;
18532;SDS011;9396;51.510;11.934;2023-02-15T00:44:22;29.57;;;18.37;;
18532;SDS011;9396;51.510;11.934;2023-02-15T00:46:49;29.10;;;18.40;;
18532;SDS011;9396;51.510;11.934;2023-02-15T00:49:15;32.07;;;19.07;;
18532;SDS011;9396;51.510;11.934;2023-02-15T00:51:42;32.20;;;17.83;;
18532;SDS011;9396;51.510;11.934;2023-02-15T00:54:09;31.03;;;18.40;;
18532;SDS011;9396;51.510;11.934;2023-02-15T00:56:37;31.03;;;17.60;;
18532;SDS011;9396;51.510;11.934;2023-02-15T00:59:03;30.67;;;18.60;;
18532;SDS011;9396;51.510;11.934;2023-02-15T01:01:30;34.87;;;19.63;;
18532;SDS011;9396;51.510;11.934;2023-02-15T01:03:57;30.50;;;18.87;;
18532;SDS011;9396;51.510;11.934;2023-02-15T01:06:23;31.23;;;18.00;;
18532;SDS011;9396;51.510;11.934;2023-02-15T01:08:50;31.87;;;17.40;;
18532;SDS011;9396;51.510;11.934;2023-02-15T01:11:17;32.43;;;18.37;;
18532;SDS011;9396;51.510;11.934;2023-02-15T01:13:48;32.30;;;18.87;;
18532;SDS011;9396;51.510;11.934;2023-02-15T01:16:15;32.87;;;19.50;;
18532;SDS011;9396;51.510;11.934;2023-02-15T01:18:42;33.30;;;18.47;;
18532;SDS011;9396;51.510;11.934;2023-02-15T01:21:09;36.53;;;20.33;;
18532;SDS011;9396;51.510;11.934;2023-02-15T01:23:38;35.67;;;20.50;;
18532;SDS011;9396;51.510;11.934;2023-02-15T01:26:05;36.67;;;19.10;;
18532;SDS011;9396;51.510;11.934;2023-02-15T01:28:32;35.10;;;20.30;;
18532;SDS011;9396;51.510;11.934;2023-02-15T01:31:03;34.50;;;19.13;;
18532;SDS011;9396;51.510;11.934;2023-02-15T01:33:31;60.33;;;19.57;;
18532;SDS011;9396;51.510;11.934;2023-02-15T01:35:57;56.47;;;19.33;;
18532;SDS011;9396;51.510;11.934;2023-02-15T01:38:24;37.20;;;18.03;;
18532;SDS011;9396;51.510;11.934;2023-02-15T01:40:51;55.73;;;17.50;;
18532;SDS011;9396;51.510;11.934;2023-02-15T01:43:18;56.73;;;17.77;;
18532;SDS011;9396;51.510;11.934;2023-02-15T01:45:45;44.70;;;20.20;;
18532;SDS011;9396;51.510;11.934;2023-02-15T01:48:17;45.33;;;19.53;;
18532;SDS011;9396;51.510;11.934;2023-02-15T01:50:48;60.17;;;21.33;;
18532;SDS011;9396;51.510;11.934;2023-02-15T01:53:18;57.17;;;20.27;;
18532;SDS011;9396;51.510;11.934;2023-02-15T01:55:50;62.87;;;20.30;;
18532;SDS011;9396;51.510;11.934;2023-02-15T01:58:20;50.00;;;18.70;;
18532;SDS011;9396;51.510;11.934;2023-02-15T02:00:48;50.97;;;19.17;;
18532;SDS011;9396;51.510;11.934;2023-02-15T02:03:16;50.20;;;18.57;;
18532;SDS011;9396;51.510;11.934;2023-02-15T02:05:50;49.57;;;19.37;;
18532;SDS011;9396;51.510;11.934;2023-02-15T02:08:16;57.07;;;18.97;;
18532;SDS011;9396;51.510;11.934;2023-02-15T02:10:43;60.00;;;19.23;;
18532;SDS011;9396;51.510;11.934;2023-02-15T02:13:10;47.10;;;19.23;;
18532;SDS011;9396;51.510;11.934;2023-02-15T02:15:39;42.30;;;19.20;;
18532;SDS011;9396;51.510;11.934;2023-02-15T02:18:15;57.37;;;18.13;;
18532;SDS011;9396;51.510;11.934;2023-02-15T02:24:08;77.03;;;18.27;;
18532;SDS011;9396;51.510;11.934;2023-02-15T02:27:11;44.00;;;16.77;;
18532;SDS011;9396;51.510;11.934;2023-02-15T02:30:15;28.60;;;15.80;;
18532;SDS011;9396;51.510;11.934;2023-02-15T02:33:23;66.97;;;15.10;;
18532;SDS011;9396;51.510;11.934;2023-02-15T02:36:04;38.57;;;15.00;;
18532;SDS011;9396;51.510;11.934;2023-02-15T02:38:42;38.37;;;14.73;;
18532;SDS011;9396;51.510;11.934;2023-02-15T02:41:20;41.47;;;15.33;;
18532;SDS011;9396;51.510;11.934;2023-02-15T02:43:57;64.80;;;15.57;;
18532;SDS011;9396;51.510;11.934;2023-02-15T02:46:32;48.70;;;15.37;;
18532;SDS011;9396;51.510;11.934;2023-02-15T02:49:04;57.67;;;15.33;;
18532;SDS011;9396;51.510;11.934;2023-02-15T02:51:31;35.80;;;15.73;;
18532;SDS011;9396;51.510;11.934;2023-02-15T02:53:59;69.23;;;14.73;;
18532;SDS011;9396;51.510;11.934;2023-02-15T02:56:33;39.37;;;13.90;;
18532;SDS011;9396;51.510;11.934;2023-02-15T02:59:04;26.63;;;13.17;;
18532;SDS011;9396;51.510;11.934;2023-02-15T03:01:34;25.67;;;12.73;;
18532;SDS011;9396;51.510;11.934;2023-02-15T03:04:08;35.10;;;12.90;;
18532;SDS011;9396;51.510;11.934;2023-02-15T03:06:39;20.87;;;11.93;;
18532;SDS011;9396;51.510;11.934;2023-02-15T03:09:12;20.90;;;11.47;;
18532;SDS011;9396;51.510;11.934;2023-02-15T03:11:44;20.83;;;10.40;;
18532;SDS011;9396;51.510;11.934;2023-02-15T03:14:12;16.40;;;9.43;;
18532;SDS011;9396;51.510;11.934;2023-02-15T03:16:41;15.93;;;9.33;;
18532;SDS011;9396;51.510;11.934;2023-02-15T03:19:15;15.50;;;9.90;;
18532;SDS011;9396;51.510;11.934;2023-02-15T03:21:47;16.27;;;9.07;;
18532;SDS011;9396;51.510;11.934;2023-02-15T03:24:23;15.17;;;9.13;;
18532;SDS011;9396;51.510;11.934;2023-02-15T03:26:51;32.50;;;9.77;;
18532;SDS011;9396;51.510;11.934;2023-02-15T03:29:20;30.50;;;9.70;;
18532;SDS011;9396;51.510;11.934;2023-02-15T03:31:51;14.37;;;9.33;;
18532;SDS011;9396;51.510;11.934;2023-02-15T03:34:24;26.07;;;9.67;;
18532;SDS011;9396;51.510;11.934;2023-02-15T03:36:52;22.20;;;9.23;;
18532;SDS011;9396;51.510;11.934;2023-02-15T03:39:27;31.73;;;9.70;;
18532;SDS011;9396;51.510;11.934;2023-02-15T03:41:59;21.13;;;10.40;;
18532;SDS011;9396;51.510;11.934;2023-02-15T03:44:35;22.20;;;9.67;;
18532;SDS011;9396;51.510;11.934;2023-02-15T03:47:08;15.07;;;9.43;;
18532;SDS011;9396;51.510;11.934;2023-02-15T03:49:42;15.80;;;9.27;;
18532;SDS011;9396;51.510;11.934;2023-02-15T03:52:15;26.10;;;10.33;;
18532;SDS011;9396;51.510;11.934;2023-02-15T03:54:43;19.53;;;9.83;;
18532;SDS011;9396;51.510;11.934;2023-02-15T03:57:13;23.17;;;9.13;;
18532;SDS011;9396;51.510;11.934;2023-02-15T03:59:59;18.67;;;7.97;;
18532;SDS011;9396;51.510;11.934;2023-02-15T04:02:49;22.30;;;7.87;;
18532;SDS011;9396;51.510;11.934;2023-02-15T04:05:33;23.07;;;7.53;;
18532;SDS011;9396;51.510;11.934;2023-02-15T04:08:00;9.97;;;7.10;;
18532;SDS011;9396;51.510;11.934;2023-02-15T04:10:27;13.40;;;6.87;;
18532;SDS011;9396;51.510;11.934;2023-02-15T04:13:10;14.73;;;7.37;;
18532;SDS011;9396;51.510;11.934;2023-02-15T04:15:37;20.20;;;7.20;;
18532;SDS011;9396;51.510;11.934;2023-02-15T04:18:21;14.13;;;7.43;;
18532;SDS011;9396;51.510;11.934;2023-02-15T04:21:07;12.73;;;6.93;;
18532;SDS011;9396;51.510;11.934;2023-02-15T04:23:51;14.90;;;6.97;;
18532;SDS011;9396;51.510;11.934;2023-02-15T04:26:35;15.93;;;7.53;;
18532;SDS011;9396;51.510;11.934;2023-02-15T04:29:02;10.77;;;7.03;;
18532;SDS011;9396;51.510;11.934;2023-02-15T04:31:28;12.37;;;6.40;;
18532;SDS011;9396;51.510;11.934;2023-02-15T04:33:55;13.90;;;7.23;;
18532;SDS011;9396;51.510;11.934;2023-02-15T04:36:23;12.97;;;6.93;;
18532;SDS011;9396;51.510;11.934;2023-02-15T04:38:49;9.13;;;6.60;;
18532;SDS011;9396;51.510;11.934;2023-02-15T04:41:16;10.60;;;6.93;;
18532;SDS011;9396;51.510;11.934;2023-02-15T04:43:42;9.80;;;7.30;;
18532;SDS011;9396;51.510;11.934;2023-02-15T04:46:09;12.10;;;7.10;;
18532;SDS011;9396;51.510;11.934;2023-02-15T04:48:36;11.67;;;6.20;;
18532;SDS011;9396;51.510;11.934;2023-02-15T04:51:04;14.50;;;6.47;;
18532;SDS011;9396;51.510;11.934;2023-02-15T04:53:32;13.80;;;6.23;;
18532;SDS011;9396;51.510;11.934;2023-02-15T04:55:59;8.27;;;5.87;;
18532;SDS011;9396;51.510;11.934;2023-02-15T04:58:26;10.47;;;5.10;;
18532;SDS011;9396;51.510;11.934;2023-02-15T05:00:54;7.87;;;5.80;;
18532;SDS011;9396;51.510;11.934;2023-02-15T05:03:22;6.90;;;4.93;;
18532;SDS011;9396;51.510;11.934;2023-02-15T05:05:48;8.07;;;5.33;;
18532;SDS011;9396;51.510;11.934;2023-02-15T05:08:15;13.17;;;5.50;;
18532;SDS011;9396;51.510;11.934;2023-02-15T05:10:43;11.20;;;5.57;;
18532;SDS011;9396;51.510;11.934;2023-02-15T05:13:10;9.77;;;5.53;;
18532;SDS011;9396;51.510;11.934;2023-02-15T05:15:36;6.87;;;5.60;;
18532;SDS011;9396;51.510;11.934;2023-02-15T05:18:03;9.57;;;4.70;;
18532;SDS011;9396;51.510;11.934;2023-02-15T05:20:31;10.27;;;5.40;;
18532;SDS011;9396;51.510;11.934;2023-02-15T05:22:58;6.97;;;5.33;;
18532;SDS011;9396;51.510;11.934;2023-02-15T05:25:24;13.20;;;5.33;;
18532;SDS011;9396;51.510;11.934;2023-02-15T05:28:10;13.23;;;5.40;;
18532;SDS011;9396;51.510;11.934;2023-02-15T05:30:46;9.60;;;5.27;;
18532;SDS011;9396;51.510;11.934;2023-02-15T05:33:12;8.93;;;5.23;;
18532;SDS011;9396;51.510;11.934;2023-02-15T05:35:39;7.87;;;5.57;;
18532;SDS011;9396;51.510;11.934;2023-02-15T05:38:06;6.20;;;5.00;;
18532;SDS011;9396;51.510;11.934;2023-02-15T05:40:32;7.63;;;5.70;;
18532;SDS011;9396;51.510;11.934;2023-02-15T05:42:59;8.47;;;5.50;;
18532;SDS011;9396;51.510;11.934;2023-02-15T05:45:27;7.93;;;5.37;;
18532;SDS011;9396;51.510;11.934;2023-02-15T05:47:54;7.43;;;5.13;;
18532;SDS011;9396;51.510;11.934;2023-02-15T05:50:23;6.87;;;5.23;;
18532;SDS011;9396;51.510;11.934;2023-02-15T05:52:49;6.73;;;5.00;;
18532;SDS011;9396;51.510;11.934;2023-02-15T05:55:16;8.03;;;4.50;;
18532;SDS011;9396;51.510;11.934;2023-02-15T05:57:43;6.57;;;5.23;;
18532;SDS011;9396;51.510;11.934;2023-02-15T06:00:10;5.93;;;5.07;;
18532;SDS011;9396;51.510;11.934;2023-02-15T06:02:40;10.10;;;5.57;;
18532;SDS011;9396;51.510;11.934;2023-02-15T06:05:07;6.20;;;4.80;;
18532;SDS011;9396;51.510;11.934;2023-02-15T06:07:34;7.07;;;5.40;;
18532;SDS011;9396;51.510;11.934;2023-02-15T06:10:01;6.33;;;4.50;;
18532;SDS011;9396;51.510;11.934;2023-02-15T06:12:27;6.43;;;5.30;;
18532;SDS011;9396;51.510;11.934;2023-02-15T06:14:54;6.43;;;4.93;;
18532;SDS011;9396;51.510;11.934;2023-02-15T06:17:20;11.07;;;5.60;;
18532;SDS011;9396;51.510;11.934;2023-02-15T06:19:48;9.93;;;5.40;;
18532;SDS011;9396;51.510;11.934;2023-02-15T06:22:15;5.83;;;4.67;;
18532;SDS011;9396;51.510;11.934;2023-02-15T06:24:42;6.40;;;5.23;;
18532;SDS011;9396;51.510;11.934;2023-02-15T06:27:08;7.70;;;5.07;;
18532;SDS011;9396;51.510;11.934;2023-02-15T06:29:35;8.30;;;4.80;;
18532;SDS011;9396;51.510;11.934;2023-02-15T06:32:02;6.90;;;5.03;;
18532;SDS011;9396;51.510;11.934;2023-02-15T06:34:29;9.03;;;5.13;;
18532;SDS011;9396;51.510;11.934;2023-02-15T06:36:57;7.20;;;5.17;;
18532;SDS011;9396;51.510;11.934;2023-02-15T06:39:24;5.53;;;4.40;;
18532;SDS011;9396;51.510;11.934;2023-02-15T06:41:51;7.90;;;5.27;;
18532;SDS011;9396;51.510;11.934;2023-02-15T06:44:17;8.97;;;4.60;;
18532;SDS011;9396;51.510;11.934;2023-02-15T06:46:44;13.87;;;4.87;;
18532;SDS011;9396;51.510;11.934;2023-02-15T06:49:11;7.27;;;5.20;;
18532;SDS011;9396;51.510;11.934;2023-02-15T06:51:37;6.60;;;5.17;;
18532;SDS011;9396;51.510;11.934;2023-02-15T06:54:05;8.50;;;5.23;;
18532;SDS011;9396;51.510;11.934;2023-02-15T06:56:32;9.60;;;6.27;;
18532;SDS011;9396;51.510;11.934;2023-02-15T06:58:58;8.33;;;6.03;;
18532;SDS011;9396;51.510;11.934;2023-02-15T07:01:25;9.27;;;5.60;;
18532;SDS011;9396;51.510;11.934;2023-02-15T07:03:52;6.90;;;4.87;;
18532;SDS011;9396;51.510;11.934;2023-02-15T07:06:18;8.47;;;5.50;;
18532;SDS011;9396;51.510;11.934;2023-02-15T07:08:45;7.77;;;5.23;;
18532;SDS011;9396;51.510;11.934;2023-02-15T07:11:13;8.03;;;5.43;;
18532;SDS011;9396;51.510;11.934;2023-02-15T07:13:57;8.23;;;5.07;;
18532;SDS011;9396;51.510;11.934;2023-02-15T07:16:24;6.20;;;4.73;;
18532;SDS011;9396;51.510;11.934;2023-02-15T07:18:50;15.47;;;4.97;;
18532;SDS011;9396;51.510;11.934;2023-02-15T07:21:17;10.57;;;5.20;;
18532;SDS011;9396;51.510;11.934;2023-02-15T07:23:43;7.77;;;4.83;;
18532;SDS011;9396;51.510;11.934;2023-02-15T07:26:10;6.53;;;4.67;;
18532;SDS011;9396;51.510;11.934;2023-02-15T07:28:38;6.23;;;4.90;;
18532;SDS011;9396;51.510;11.934;2023-02-15T07:31:05;8.53;;;5.80;;
18532;SDS011;9396;51.510;11.934;2023-02-15T07:33:32;9.90;;;5.73;;
18532;SDS011;9396;51.510;11.934;2023-02-15T07:36:00;7.30;;;5.80;;
18532;SDS011;9396;51.510;11.934;2023-02-15T07:38:30;8.53;;;5.40;;
18532;SDS011;9396;51.510;11.934;2023-02-15T07:40:58;7.63;;;5.23;;
18532;SDS011;9396;51.510;11.934;2023-02-15T07:43:25;8.23;;;5.67;;
18532;SDS011;9396;51.510;11.934;2023-02-15T07:45:53;6.93;;;5.37;;
18532;SDS011;9396;51.510;11.934;2023-02-15T07:48:19;7.07;;;5.47;;
18532;SDS011;9396;51.510;11.934;2023-02-15T07:50:47;8.57;;;5.60;;
18532;SDS011;9396;51.510;11.934;2023-02-15T07:53:13;6.97;;;5.57;;
18532;SDS011;9396;51.510;11.934;2023-02-15T07:55:40;7.63;;;5.53;;
18532;SDS011;9396;51.510;11.934;2023-02-15T07:58:07;6.93;;;5.67;;
18532;SDS011;9396;51.510;11.934;2023-02-15T08:00:33;6.87;;;5.47;;
18532;SDS011;9396;51.510;11.934;2023-02-15T08:03:23;8.87;;;6.37;;
18532;SDS011;9396;51.510;11.934;2023-02-15T08:05:54;7.10;;;5.50;;
18532;SDS011;9396;51.510;11.934;2023-02-15T08:08:23;10.87;;;6.13;;
18532;SDS011;9396;51.510;11.934;2023-02-15T08:10:59;7.37;;;5.93;;
18532;SDS011;9396;51.510;11.934;2023-02-15T08:13:44;8.17;;;6.20;;
18532;SDS011;9396;51.510;11.934;2023-02-15T08:16:18;7.90;;;6.20;;
18532;SDS011;9396;51.510;11.934;2023-02-15T08:18:47;10.10;;;7.27;;
18532;SDS011;9396;51.510;11.934;2023-02-15T08:21:14;9.70;;;6.73;;
18532;SDS011;9396;51.510;11.934;2023-02-15T08:23:41;8.57;;;6.87;;
18532;SDS011;9396;51.510;11.934;2023-02-15T08:26:08;9.30;;;7.30;;
18532;SDS011;9396;51.510;11.934;2023-02-15T08:28:34;8.97;;;7.10;;
18532;SDS011;9396;51.510;11.934;2023-02-15T08:31:05;9.33;;;7.37;;
18532;SDS011;9396;51.510;11.934;2023-02-15T08:33:32;9.80;;;7.30;;
18532;SDS011;9396;51.510;11.934;2023-02-15T08:36:03;10.07;;;7.60;;
18532;SDS011;9396;51.510;11.934;2023-02-15T08:38:30;10.00;;;7.77;;
18532;SDS011;9396;51.510;11.934;2023-02-15T08:40:57;11.13;;;8.03;;
18532;SDS011;9396;51.510;11.934;2023-02-15T08:43:24;10.23;;;7.67;;
18532;SDS011;9396;51.510;11.934;2023-02-15T08:45:51;13.40;;;7.93;;
18532;SDS011;9396;51.510;11.934;2023-02-15T08:48:17;10.40;;;7.43;;
18532;SDS011;9396;51.510;11.934;2023-02-15T08:50:44;10.30;;;7.77;;
18532;SDS011;9396;51.510;11.934;2023-02-15T08:53:12;10.43;;;8.13;;
18532;SDS011;9396;51.510;11.934;2023-02-15T08:55:38;11.43;;;8.17;;
18532;SDS011;9396;51.510;11.934;2023-02-15T08:58:05;10.53;;;7.77;;
18532;SDS011;9396;51.510;11.934;2023-02-15T09:00:32;10.90;;;8.87;;
18532;SDS011;9396;51.510;11.934;2023-02-15T09:02:59;11.57;;;8.73;;
18532;SDS011;9396;51.510;11.934;2023-02-15T09:05:25;12.40;;;8.83;;
18532;SDS011;9396;51.510;11.934;2023-02-15T09:07:52;11.67;;;8.27;;
18532;SDS011;9396;51.510;11.934;2023-02-15T09:10:20;11.83;;;8.33;;
18532;SDS011;9396;51.510;11.934;2023-02-15T09:12:46;13.30;;;8.60;;
18532;SDS011;9396;51.510;11.934;2023-02-15T09:15:15;11.10;;;8.10;;
18532;SDS011;9396;51.510;11.934;2023-02-15T09:17:41;12.70;;;9.13;;
18532;SDS011;9396;51.510;11.934;2023-02-15T09:20:08;12.97;;;8.27;;
18532;SDS011;9396;51.510;11.934;2023-02-15T09:22:35;12.17;;;8.63;;
18532;SDS011;9396;51.510;11.934;2023-02-15T09:25:02;12.50;;;7.93;;
18532;SDS011;9396;51.510;11.934;2023-02-15T09:27:30;12.57;;;8.90;;
18532;SDS011;9396;51.510;11.934;2023-02-15T09:29:57;10.83;;;8.70;;
18532;SDS011;9396;51.510;11.934;2023-02-15T09:32:24;9.57;;;7.70;;
18532;SDS011;9396;51.510;11.934;2023-02-15T09:34:50;11.37;;;8.33;;
18532;SDS011;9396;51.510;11.934;2023-02-15T09:37:17;10.80;;;8.37;;
18532;SDS011;9396;51.510;11.934;2023-02-15T09:39:44;11.60;;;8.70;;
18532;SDS011;9396;51.510;11.934;2023-02-15T09:42:24;12.87;;;8.03;;
18532;SDS011;9396;51.510;11.934;2023-02-15T09:47:57;12.00;;;9.03;;
18532;SDS011;9396;51.510;11.934;2023-02-15T09:50:52;10.83;;;8.37;;
18532;SDS011;9396;51.510;11.934;2023-02-15T09:53:30;14.53;;;8.77;;
18532;SDS011;9396;51.510;11.934;2023-02-15T09:56:12;11.57;;;8.43;;
18532;SDS011;9396;51.510;11.934;2023-02-15T09:58:48;14.03;;;9.00;;
18532;SDS011;9396;51.510;11.934;2023-02-15T10:01:23;12.37;;;8.77;;
18532;SDS011;9396;51.510;11.934;2023-02-15T10:04:04;12.83;;;9.37;;
18532;SDS011;9396;51.510;11.934;2023-02-15T10:06:46;13.47;;;8.57;;
18532;SDS011;9396;51.510;11.934;2023-02-15T10:09:38;11.93;;;8.10;;
18532;SDS011;9396;51.510;11.934;2023-02-15T10:12:20;12.20;;;7.87;;
18532;SDS011;9396;51.510;11.934;2023-02-15T10:15:17;10.70;;;7.53;;
18532;SDS011;9396;51.510;11.934;2023-02-15T10:17:59;12.33;;;7.60;;
18532;SDS011;9396;51.510;11.934;2023-02-15T10:20:35;11.27;;;7.93;;
18532;SDS011;9396;51.510;11.934;2023-02-15T10:23:17;10.93;;;7.10;;
18532;SDS011;9396;51.510;11.934;2023-02-15T10:25:56;10.93;;;8.10;;
18532;SDS011;9396;51.510;11.934;2023-02-15T10:28:31;11.27;;;7.40;;
18532;SDS011;9396;51.510;11.934;2023-02-15T10:31:17;13.13;;;7.30;;
18532;SDS011;9396;51.510;11.934;2023-02-15T10:34:07;11.63;;;8.20;;
18532;SDS011;9396;51.510;11.934;2023-02-15T10:36:46;9.53;;;7.47;;
18532;SDS011;9396;51.510;11.934;2023-02-15T10:39:24;11.47;;;7.63;;
18532;SDS011;9396;51.510;11.934;2023-02-15T10:41:57;11.23;;;7.57;;
18532;SDS011;9396;51.510;11.934;2023-02-15T10:44:35;10.53;;;7.63;;
18532;SDS011;9396;51.510;11.934;2023-02-15T10:47:20;12.00;;;8.70;;
18532;SDS011;9396;51.510;11.934;2023-02-15T10:50:11;11.23;;;7.07;;
18532;SDS011;9396;51.510;11.934;2023-02-15T10:52:49;10.27;;;7.60;;
18532;SDS011;9396;51.510;11.934;2023-02-15T10:55:29;10.17;;;7.40;;
18532;SDS011;9396;51.510;11.934;2023-02-15T10:58:07;9.53;;;7.40;;
18532;SDS011;9396;51.510;11.934;2023-02-15T11:00:41;11.50;;;7.43;;
18532;SDS011;9396;51.510;11.934;2023-02-15T11:03:18;11.17;;;7.23;;
18532;SDS011;9396;51.510;11.934;2023-02-15T11:05:58;10.10;;;7.50;;
18532;SDS011;9396;51.510;11.934;2023-02-15T11:08:29;8.93;;;7.03;;
18532;SDS011;9396;51.510;11.934;2023-02-15T11:10:59;9.87;;;7.30;;
18532;SDS011;9396;51.510;11.934;2023-02-15T11:13:29;8.97;;;6.80;;
18532;SDS011;9396;51.510;11.934;2023-02-15T11:16:00;10.33;;;7.80;;
18532;SDS011;9396;51.510;11.934;2023-02-15T11:18:34;14.73;;;6.93;;
18532;SDS011;9396;51.510;11.934;2023-02-15T11:21:06;11.23;;;7.00;;
18532;SDS011;9396;51.510;11.934;2023-02-15T11:23:39;10.70;;;6.87;;
18532;SDS011;9396;51.510;11.934;2023-02-15T11:26:11;13.60;;;6.90;;
18532;SDS011;9396;51.510;11.934;2023-02-15T11:28:42;10.23;;;7.73;;
18532;SDS011;9396;51.510;11.934;2023-02-15T11:31:12;8.63;;;6.73;;
18532;SDS011;9396;51.510;11.934;2023-02-15T11:33:44;10.37;;;7.03;;
18532;SDS011;9396;51.510;11.934;2023-02-15T11:36:15;8.73;;;6.93;;
18532;SDS011;9396;51.510;11.934;2023-02-15T11:38:44;8.67;;;6.83;;
18532;SDS011;9396;51.510;11.934;2023-02-15T11:41:16;9.37;;;6.70;;
18532;SDS011;9396;51.510;11.934;2023-02-15T11:43:46;11.83;;;7.13;;
18532;SDS011;9396;51.510;11.934;2023-02-15T11:46:20;8.17;;;6.33;;
18532;SDS011;9396;51.510;11.934;2023-02-15T11:48:48;8.57;;;6.97;;
18532;SDS011;9396;51.510;11.934;2023-02-15T11:51:16;8.73;;;6.80;;
18532;SDS011;9396;51.510;11.934;2023-02-15T11:53:45;9.80;;;6.60;;
18532;SDS011;9396;51.510;11.934;2023-02-15T11:56:13;9.43;;;6.30;;
18532;SDS011;9396;51.510;11.934;2023-02-15T11:58:41;8.90;;;6.50;;
18532;SDS011;9396;51.510;11.934;2023-02-15T12:01:13;10.30;;;7.30;;
18532;SDS011;9396;51.510;11.934;2023-02-15T12:03:43;9.07;;;6.87;;
18532;SDS011;9396;51.510;11.934;2023-02-15T12:06:18;10.60;;;6.60;;
18532;SDS011;9396;51.510;11.934;2023-02-15T12:08:51;7.67;;;6.30;;
18532;SDS011;9396;51.510;11.934;2023-02-15T12:11:26;8.03;;;6.37;;
18532;SDS011;9396;51.510;11.934;2023-02-15T12:13:58;9.03;;;6.60;;
18532;SDS011;9396;51.510;11.934;2023-02-15T12:16:26;11.33;;;6.73;;
18532;SDS011;9396;51.510;11.934;2023-02-15T12:18:55;10.60;;;6.27;;
18532;SDS011;9396;51.510;11.934;2023-02-15T12:21:26;8.60;;;6.47;;
18532;SDS011;9396;51.510;11.934;2023-02-15T12:23:55;9.00;;;6.47;;
18532;SDS011;9396;51.510;11.934;2023-02-15T12:26:25;7.30;;;5.83;;
18532;SDS011;9396;51.510;11.934;2023-02-15T12:28:53;8.60;;;6.60;;
18532;SDS011;9396;51.510;11.934;2023-02-15T12:31:27;7.90;;;5.93;;
18532;SDS011;9396;51.510;11.934;2023-02-15T12:33:57;8.63;;;6.50;;
18532;SDS011;9396;51.510;11.934;2023-02-15T12:36:29;8.83;;;6.57;;
18532;SDS011;9396;51.510;11.934;2023-02-15T12:39:16;8.53;;;6.23;;
18532;SDS011;9396;51.510;11.934;2023-02-15T12:41:46;9.60;;;6.07;;
18532;SDS011;9396;51.510;11.934;2023-02-15T12:44:24;8.07;;;5.90;;
18532;SDS011;9396;51.510;11.934;2023-02-15T12:46:57;6.70;;;5.33;;
18532;SDS011;9396;51.510;11.934;2023-02-15T12:49:25;8.73;;;6.30;;
18532;SDS011;9396;51.510;11.934;2023-02-15T12:51:55;7.90;;;5.57;;
18532;SDS011;9396;51.510;11.934;2023-02-15T12:54:36;8.53;;;6.27;;
18532;SDS011;9396;51.510;11.934;2023-02-15T12:57:21;7.40;;;5.83;;
18532;SDS011;9396;51.510;11.934;2023-02-15T12:59:52;7.93;;;5.93;;
18532;SDS011;9396;51.510;11.934;2023-02-15T13:02:21;7.37;;;5.63;;
18532;SDS011;9396;51.510;11.934;2023-02-15T13:04:54;9.17;;;6.20;;
18532;SDS011;9396;51.510;11.934;2023-02-15T13:07:25;6.67;;;5.13;;
18532;SDS011;9396;51.510;11.934;2023-02-15T13:09:57;10.33;;;5.33;;
18532;SDS011;9396;51.510;11.934;2023-02-15T13:12:24;6.83;;;5.67;;
18532;SDS011;9396;51.510;11.934;2023-02-15T13:14:55;7.57;;;5.07;;
18532;SDS011;9396;51.510;11.934;2023-02-15T13:17:25;7.20;;;5.57;;
18532;SDS011;9396;51.510;11.934;2023-02-15T13:19:55;6.90;;;5.23;;
18532;SDS011;9396;51.510;11.934;2023-02-15T13:22:27;14.17;;;5.23;;
18532;SDS011;9396;51.510;11.934;2023-02-15T13:25:01;8.23;;;5.37;;
18532;SDS011;9396;51.510;11.934;2023-02-15T13:27:34;6.73;;;5.20;;
18532;SDS011;9396;51.510;11.934;2023-02-15T13:30:04;7.63;;;5.40;;
18532;SDS011;9396;51.510;11.934;2023-02-15T13:32:44;6.93;;;5.27;;
18532;SDS011;9396;51.510;11.934;2023-02-15T13:35:15;6.23;;;4.70;;
18532;SDS011;9396;51.510;11.934;2023-02-15T13:38:01;7.97;;;5.00;;
18532;SDS011;9396;51.510;11.934;2023-02-15T13:40:37;9.37;;;4.87;;
18532;SDS011;9396;51.510;11.934;2023-02-15T13:43:13;6.57;;;4.60;;
18532;SDS011;9396;51.510;11.934;2023-02-15T13:45:55;6.90;;;4.93;;
18532;SDS011;9396;51.510;11.934;2023-02-15T13:48:34;5.63;;;4.30;;
18532;SDS011;9396;51.510;11.934;2023-02-15T13:51:08;6.27;;;4.87;;
18532;SDS011;9396;51.510;11.934;2023-02-15T13:53:51;6.33;;;4.60;;
18532;SDS011;9396;51.510;11.934;2023-02-15T13:56:27;6.20;;;4.80;;
18532;SDS011;9396;51.510;11.934;2023-02-15T13:59:23;5.47;;;4.37;;
18532;SDS011;9396;51.510;11.934;2023-02-15T14:02:15;6.63;;;4.40;;
18532;SDS011;9396;51.510;11.934;2023-02-15T14:07:53;6.70;;;4.87;;
18532;SDS011;9396;51.510;11.934;2023-02-15T14:10:38;6.90;;;4.50;;
18532;SDS011;9396;51.510;11.934;2023-02-15T14:16:23;9.33;;;4.57;;
18532;SDS011;9396;51.510;11.934;2023-02-15T14:18:59;7.03;;;5.27;;
18532;SDS011;9396;51.510;11.934;2023-02-15T14:21:38;4.90;;;4.20;;
18532;SDS011;9396;51.510;11.934;2023-02-15T14:24:15;10.70;;;4.93;;
18532;SDS011;9396;51.510;11.934;2023-02-15T14:26:53;5.93;;;4.60;;
18532;SDS011;9396;51.510;11.934;2023-02-15T14:29:28;5.33;;;4.57;;
18532;SDS011;9396;51.510;11.934;2023-02-15T14:32:08;5.50;;;4.20;;
18532;SDS011;9396;51.510;11.934;2023-02-15T14:34:41;4.83;;;4.00;;
18532;SDS011;9396;51.510;11.934;2023-02-15T14:37:13;5.37;;;4.33;;
18532;SDS011;9396;51.510;11.934;2023-02-15T14:39:45;5.47;;;3.87;;
18532;SDS011;9396;51.510;11.934;2023-02-15T14:42:39;4.93;;;3.93;;
18532;SDS011;9396;51.510;11.934;2023-02-15T14:45:15;5.27;;;3.87;;
18532;SDS011;9396;51.510;11.934;2023-02-15T14:47:46;5.00;;;3.80;;
18532;SDS011;9396;51.510;11.934;2023-02-15T14:53:16;8.63;;;4.40;;
18532;SDS011;9396;51.510;11.934;2023-02-15T14:58:59;6.83;;;4.97;;
18532;SDS011;9396;51.510;11.934;2023-02-15T15:01:39;5.87;;;4.37;;
18532;SDS011;9396;51.510;11.934;2023-02-15T15:04:07;8.10;;;4.13;;
18532;SDS011;9396;51.510;11.934;2023-02-15T15:06:39;5.73;;;4.33;;
18532;SDS011;9396;51.510;11.934;2023-02-15T15:09:11;5.60;;;3.87;;
18532;SDS011;9396;51.510;11.934;2023-02-15T15:11:43;5.40;;;4.00;;
18532;SDS011;9396;51.510;11.934;2023-02-15T15:17:05;5.13;;;4.03;;
18532;SDS011;9396;51.510;11.934;2023-02-15T15:22:34;5.10;;;4.00;;
18532;SDS011;9396;51.510;11.934;2023-02-15T15:25:03;4.27;;;3.20;;
18532;SDS011;9396;51.510;11.934;2023-02-15T15:27:38;4.83;;;3.70;;